sensor_id;sensor_type;location;lat;lon;timestamp;temperature;humidity
7516;DHT22;3799;47.184;8.538;2022-09-12T00:01:48;14.80;99.90
7516;DHT22;3799;47.184;8.538;2022-09-12T00:04:14;14.80;99.90
7516;DHT22;3799;47.184;8.538;2022-09-12T00:06:40;14.70;99.90
7516;DHT22;3799;47.184;8.538;2022-09-12T00:09:08;14.90;99.90
7516;DHT22;3799;47.184;8.538;2022-09-12T00:11:34;14.80;99.90
7516;DHT22;3799;47.184;8.538;2022-09-12T00:14:01;14.50;99.90
7516;DHT22;3799;47.184;8.538;2022-09-12T00:16:27;14.90;99.90
7516;DHT22;3799;47.184;8.538;2022-09-12T00:18:53;14.70;99.90
7516;DHT22;3799;47.184;8.538;2022-09-12T00:21:19;14.80;99.90
7516;DHT22;3799;47.184;8.538;2022-09-12T00:23:45;14.60;99.90
7516;DHT22;3799;47.184;8.538;2022-09-12T00:26:11;14.60;99.90
7516;DHT22;3799;47.184;8.538;2022-09-12T00:28:37;14.50;99.90
7516;DHT22;3799;47.184;8.538;2022-09-12T00:31:08;14.40;99.90
7516;DHT22;3799;47.184;8.538;2022-09-12T00:33:34;14.30;99.90
7516;DHT22;3799;47.184;8.538;2022-09-12T00:36:03;14.30;99.90
7516;DHT22;3799;47.184;8.538;2022-09-12T00:38:28;14.20;99.90
7516;DHT22;3799;47.184;8.538;2022-09-12T00:40:54;14.50;99.90
7516;DHT22;3799;47.184;8.538;2022-09-12T00:45:55;14.20;99.90
7516;DHT22;3799;47.184;8.538;2022-09-12T00:48:22;14.40;99.90
7516;DHT22;3799;47.184;8.538;2022-09-12T00:50:50;14.00;99.90
7516;DHT22;3799;47.184;8.538;2022-09-12T00:53:15;14.20;99.90
7516;DHT22;3799;47.184;8.538;2022-09-12T00:55:41;14.30;99.90
7516;DHT22;3799;47.184;8.538;2022-09-12T00:58:11;14.10;99.90
7516;DHT22;3799;47.184;8.538;2022-09-12T01:00:38;14.10;99.90
7516;DHT22;3799;47.184;8.538;2022-09-12T01:03:05;14.10;99.90
7516;DHT22;3799;47.184;8.538;2022-09-12T01:05:32;14.40;99.90
7516;DHT22;3799;47.184;8.538;2022-09-12T01:07:59;14.20;99.90
7516;DHT22;3799;47.184;8.538;2022-09-12T01:10:25;14.40;99.90
7516;DHT22;3799;47.184;8.538;2022-09-12T01:12:51;14.40;99.90
7516;DHT22;3799;47.184;8.538;2022-09-12T01:15:16;14.20;99.90
7516;DHT22;3799;47.184;8.538;2022-09-12T01:23:10;14.20;99.90
7516;DHT22;3799;47.184;8.538;2022-09-12T01:26:02;14.20;99.90
7516;DHT22;3799;47.184;8.538;2022-09-12T01:31:12;14.20;99.90
7516;DHT22;3799;47.184;8.538;2022-09-12T01:33:46;14.10;99.90
7516;DHT22;3799;47.184;8.538;2022-09-12T01:36:29;14.00;99.90
7516;DHT22;3799;47.184;8.538;2022-09-12T01:38:59;14.10;99.90
7516;DHT22;3799;47.184;8.538;2022-09-12T01:41:30;14.00;99.90
7516;DHT22;3799;47.184;8.538;2022-09-12T01:47:22;14.00;99.90
7516;DHT22;3799;47.184;8.538;2022-09-12T01:49:31;14.10;99.90
7516;DHT22;3799;47.184;8.538;2022-09-12T01:52:06;14.20;99.90
7516;DHT22;3799;47.184;8.538;2022-09-12T01:54:40;14.20;99.90
7516;DHT22;3799;47.184;8.538;2022-09-12T01:57:09;14.20;99.90
7516;DHT22;3799;47.184;8.538;2022-09-12T01:59:37;14.10;99.90
7516;DHT22;3799;47.184;8.538;2022-09-12T02:02:06;14.10;99.90
7516;DHT22;3799;47.184;8.538;2022-09-12T02:04:41;14.40;99.90
7516;DHT22;3799;47.184;8.538;2022-09-12T02:07:17;14.20;99.90
7516;DHT22;3799;47.184;8.538;2022-09-12T02:09:49;13.90;99.90
7516;DHT22;3799;47.184;8.538;2022-09-12T02:12:17;14.20;99.90
7516;DHT22;3799;47.184;8.538;2022-09-12T02:14:45;14.10;99.90
7516;DHT22;3799;47.184;8.538;2022-09-12T02:17:13;14.30;99.90
7516;DHT22;3799;47.184;8.538;2022-09-12T02:19:41;14.00;99.90
7516;DHT22;3799;47.184;8.538;2022-09-12T02:22:07;14.30;99.90
7516;DHT22;3799;47.184;8.538;2022-09-12T02:24:37;13.80;99.90
7516;DHT22;3799;47.184;8.538;2022-09-12T02:29:30;13.90;99.90
7516;DHT22;3799;47.184;8.538;2022-09-12T02:39:19;13.70;99.90
7516;DHT22;3799;47.184;8.538;2022-09-12T02:41:46;13.70;99.90
7516;DHT22;3799;47.184;8.538;2022-09-12T02:44:12;13.60;99.90
7516;DHT22;3799;47.184;8.538;2022-09-12T02:46:40;13.90;99.90
7516;DHT22;3799;47.184;8.538;2022-09-12T02:49:07;14.00;99.90
7516;DHT22;3799;47.184;8.538;2022-09-12T02:51:32;14.00;99.90
7516;DHT22;3799;47.184;8.538;2022-09-12T02:53:58;14.10;99.90
7516;DHT22;3799;47.184;8.538;2022-09-12T02:56:26;13.70;99.90
7516;DHT22;3799;47.184;8.538;2022-09-12T02:58:52;13.80;99.90
7516;DHT22;3799;47.184;8.538;2022-09-12T03:01:25;14.10;99.90
7516;DHT22;3799;47.184;8.538;2022-09-12T03:03:59;13.90;99.90
7516;DHT22;3799;47.184;8.538;2022-09-12T03:06:36;13.90;99.90
7516;DHT22;3799;47.184;8.538;2022-09-12T03:09:19;13.70;99.90
7516;DHT22;3799;47.184;8.538;2022-09-12T03:14:21;13.70;99.90
7516;DHT22;3799;47.184;8.538;2022-09-12T03:24:36;13.30;99.90
7516;DHT22;3799;47.184;8.538;2022-09-12T03:27:11;13.50;99.90
7516;DHT22;3799;47.184;8.538;2022-09-12T03:29:38;13.10;99.90
7516;DHT22;3799;47.184;8.538;2022-09-12T03:32:04;13.30;99.90
7516;DHT22;3799;47.184;8.538;2022-09-12T03:34:31;13.10;99.90
7516;DHT22;3799;47.184;8.538;2022-09-12T03:36:57;13.00;99.90
7516;DHT22;3799;47.184;8.538;2022-09-12T03:39:24;13.10;99.90
7516;DHT22;3799;47.184;8.538;2022-09-12T03:41:50;13.20;99.90
7516;DHT22;3799;47.184;8.538;2022-09-12T03:44:16;13.00;99.90
7516;DHT22;3799;47.184;8.538;2022-09-12T03:46:42;13.10;99.90
7516;DHT22;3799;47.184;8.538;2022-09-12T03:49:08;12.90;99.90
7516;DHT22;3799;47.184;8.538;2022-09-12T03:51:35;13.00;99.90
7516;DHT22;3799;47.184;8.538;2022-09-12T03:54:01;12.70;99.90
7516;DHT22;3799;47.184;8.538;2022-09-12T03:56:26;12.70;99.90
7516;DHT22;3799;47.184;8.538;2022-09-12T03:58:52;12.60;99.90
7516;DHT22;3799;47.184;8.538;2022-09-12T04:01:18;12.90;99.90
7516;DHT22;3799;47.184;8.538;2022-09-12T04:03:45;12.70;99.90
7516;DHT22;3799;47.184;8.538;2022-09-12T04:06:12;12.70;99.90
7516;DHT22;3799;47.184;8.538;2022-09-12T04:08:39;12.60;99.90
7516;DHT22;3799;47.184;8.538;2022-09-12T04:11:05;12.80;99.90
7516;DHT22;3799;47.184;8.538;2022-09-12T04:13:32;12.70;99.90
7516;DHT22;3799;47.184;8.538;2022-09-12T04:15:57;12.70;99.90
7516;DHT22;3799;47.184;8.538;2022-09-12T04:18:23;12.70;99.90
7516;DHT22;3799;47.184;8.538;2022-09-12T04:20:49;12.60;99.90
7516;DHT22;3799;47.184;8.538;2022-09-12T04:23:15;13.00;99.90
7516;DHT22;3799;47.184;8.538;2022-09-12T04:25:40;12.70;99.90
7516;DHT22;3799;47.184;8.538;2022-09-12T04:28:06;12.90;99.90
7516;DHT22;3799;47.184;8.538;2022-09-12T04:30:32;13.10;99.90
7516;DHT22;3799;47.184;8.538;2022-09-12T04:32:57;12.90;99.90
7516;DHT22;3799;47.184;8.538;2022-09-12T04:35:23;12.80;99.90
7516;DHT22;3799;47.184;8.538;2022-09-12T04:37:49;12.80;99.90
7516;DHT22;3799;47.184;8.538;2022-09-12T04:40:14;12.80;99.90
7516;DHT22;3799;47.184;8.538;2022-09-12T04:42:40;12.60;99.90
7516;DHT22;3799;47.184;8.538;2022-09-12T04:45:05;12.80;99.90
7516;DHT22;3799;47.184;8.538;2022-09-12T04:47:32;12.50;99.90
7516;DHT22;3799;47.184;8.538;2022-09-12T04:49:57;12.60;99.90
7516;DHT22;3799;47.184;8.538;2022-09-12T04:52:23;12.50;99.90
7516;DHT22;3799;47.184;8.538;2022-09-12T04:54:48;12.60;99.90
7516;DHT22;3799;47.184;8.538;2022-09-12T04:57:15;12.60;99.90
7516;DHT22;3799;47.184;8.538;2022-09-12T04:59:42;12.50;99.90
7516;DHT22;3799;47.184;8.538;2022-09-12T05:02:08;12.70;99.90
7516;DHT22;3799;47.184;8.538;2022-09-12T05:04:34;12.50;99.90
7516;DHT22;3799;47.184;8.538;2022-09-12T05:07:00;12.60;99.90
7516;DHT22;3799;47.184;8.538;2022-09-12T05:09:26;12.40;99.90
7516;DHT22;3799;47.184;8.538;2022-09-12T05:11:52;12.50;99.90
7516;DHT22;3799;47.184;8.538;2022-09-12T05:14:17;12.30;99.90
7516;DHT22;3799;47.184;8.538;2022-09-12T05:16:43;12.30;99.90
7516;DHT22;3799;47.184;8.538;2022-09-12T05:19:09;12.50;99.90
7516;DHT22;3799;47.184;8.538;2022-09-12T05:21:35;12.30;99.90
7516;DHT22;3799;47.184;8.538;2022-09-12T05:24:01;12.60;99.90
7516;DHT22;3799;47.184;8.538;2022-09-12T05:26:26;12.50;99.90
7516;DHT22;3799;47.184;8.538;2022-09-12T05:28:52;12.60;99.90
7516;DHT22;3799;47.184;8.538;2022-09-12T05:33:44;12.80;99.90
7516;DHT22;3799;47.184;8.538;2022-09-12T05:36:11;12.70;99.90
7516;DHT22;3799;47.184;8.538;2022-09-12T05:38:37;12.60;99.90
7516;DHT22;3799;47.184;8.538;2022-09-12T05:41:03;12.70;99.90
7516;DHT22;3799;47.184;8.538;2022-09-12T05:43:31;12.60;99.90
7516;DHT22;3799;47.184;8.538;2022-09-12T05:46:04;12.50;99.90
7516;DHT22;3799;47.184;8.538;2022-09-12T05:48:30;12.80;99.90
7516;DHT22;3799;47.184;8.538;2022-09-12T05:50:59;12.60;99.90
7516;DHT22;3799;47.184;8.538;2022-09-12T05:53:26;13.00;99.90
7516;DHT22;3799;47.184;8.538;2022-09-12T05:56:08;12.90;99.90
7516;DHT22;3799;47.184;8.538;2022-09-12T05:58:35;13.00;99.90
7516;DHT22;3799;47.184;8.538;2022-09-12T06:01:05;13.30;99.90
7516;DHT22;3799;47.184;8.538;2022-09-12T06:03:38;13.40;99.90
7516;DHT22;3799;47.184;8.538;2022-09-12T06:06:04;13.20;99.90
7516;DHT22;3799;47.184;8.538;2022-09-12T06:08:31;13.40;99.90
7516;DHT22;3799;47.184;8.538;2022-09-12T06:10:57;13.50;99.90
7516;DHT22;3799;47.184;8.538;2022-09-12T06:13:23;13.70;99.90
7516;DHT22;3799;47.184;8.538;2022-09-12T06:15:49;13.80;99.90
7516;DHT22;3799;47.184;8.538;2022-09-12T06:18:14;13.50;99.90
7516;DHT22;3799;47.184;8.538;2022-09-12T06:20:40;13.80;99.90
7516;DHT22;3799;47.184;8.538;2022-09-12T06:23:08;13.60;99.90
7516;DHT22;3799;47.184;8.538;2022-09-12T06:25:33;13.60;99.90
7516;DHT22;3799;47.184;8.538;2022-09-12T06:27:59;13.70;99.90
7516;DHT22;3799;47.184;8.538;2022-09-12T06:30:25;13.70;99.90
7516;DHT22;3799;47.184;8.538;2022-09-12T06:32:52;14.00;99.90
7516;DHT22;3799;47.184;8.538;2022-09-12T06:35:18;14.10;99.90
7516;DHT22;3799;47.184;8.538;2022-09-12T06:37:43;14.30;99.90
7516;DHT22;3799;47.184;8.538;2022-09-12T06:40:10;14.50;99.90
7516;DHT22;3799;47.184;8.538;2022-09-12T06:42:36;14.20;99.90
7516;DHT22;3799;47.184;8.538;2022-09-12T06:45:02;14.30;99.90
7516;DHT22;3799;47.184;8.538;2022-09-12T06:47:27;14.70;99.90
7516;DHT22;3799;47.184;8.538;2022-09-12T06:49:53;14.60;99.90
7516;DHT22;3799;47.184;8.538;2022-09-12T06:52:19;14.40;99.90
7516;DHT22;3799;47.184;8.538;2022-09-12T06:54:44;14.60;99.90
7516;DHT22;3799;47.184;8.538;2022-09-12T06:57:10;14.70;99.90
7516;DHT22;3799;47.184;8.538;2022-09-12T06:59:36;14.60;99.90
7516;DHT22;3799;47.184;8.538;2022-09-12T07:02:02;14.70;99.90
7516;DHT22;3799;47.184;8.538;2022-09-12T07:04:28;14.70;99.90
7516;DHT22;3799;47.184;8.538;2022-09-12T07:06:53;15.00;99.90
7516;DHT22;3799;47.184;8.538;2022-09-12T07:09:19;15.00;99.90
7516;DHT22;3799;47.184;8.538;2022-09-12T07:11:45;15.00;99.90
7516;DHT22;3799;47.184;8.538;2022-09-12T07:14:11;14.90;99.90
7516;DHT22;3799;47.184;8.538;2022-09-12T07:16:38;15.40;99.90
7516;DHT22;3799;47.184;8.538;2022-09-12T07:19:05;15.00;99.90
7516;DHT22;3799;47.184;8.538;2022-09-12T07:21:31;15.20;99.90
7516;DHT22;3799;47.184;8.538;2022-09-12T07:23:57;15.20;99.90
7516;DHT22;3799;47.184;8.538;2022-09-12T07:26:24;15.50;99.90
7516;DHT22;3799;47.184;8.538;2022-09-12T07:28:50;15.70;99.90
7516;DHT22;3799;47.184;8.538;2022-09-12T07:31:17;15.70;99.90
7516;DHT22;3799;47.184;8.538;2022-09-12T07:33:43;15.70;99.90
7516;DHT22;3799;47.184;8.538;2022-09-12T07:36:10;15.80;99.90
7516;DHT22;3799;47.184;8.538;2022-09-12T07:38:36;15.80;99.90
7516;DHT22;3799;47.184;8.538;2022-09-12T07:41:12;15.90;99.90
7516;DHT22;3799;47.184;8.538;2022-09-12T07:43:38;15.90;99.90
7516;DHT22;3799;47.184;8.538;2022-09-12T07:46:04;16.20;99.90
7516;DHT22;3799;47.184;8.538;2022-09-12T07:48:29;16.50;99.90
7516;DHT22;3799;47.184;8.538;2022-09-12T07:50:59;16.60;99.90
7516;DHT22;3799;47.184;8.538;2022-09-12T07:53:25;16.70;99.90
7516;DHT22;3799;47.184;8.538;2022-09-12T07:55:54;16.50;99.90
7516;DHT22;3799;47.184;8.538;2022-09-12T07:58:21;16.80;99.90
7516;DHT22;3799;47.184;8.538;2022-09-12T08:00:46;16.60;99.90
7516;DHT22;3799;47.184;8.538;2022-09-12T08:03:12;17.10;99.90
7516;DHT22;3799;47.184;8.538;2022-09-12T08:05:38;16.90;99.90
7516;DHT22;3799;47.184;8.538;2022-09-12T08:08:03;17.00;99.90
7516;DHT22;3799;47.184;8.538;2022-09-12T08:10:29;17.50;99.90
7516;DHT22;3799;47.184;8.538;2022-09-12T08:12:54;17.20;99.90
7516;DHT22;3799;47.184;8.538;2022-09-12T08:15:20;17.30;99.90
7516;DHT22;3799;47.184;8.538;2022-09-12T08:17:46;17.50;99.90
7516;DHT22;3799;47.184;8.538;2022-09-12T08:20:11;17.50;99.90
7516;DHT22;3799;47.184;8.538;2022-09-12T08:22:37;17.50;99.90
7516;DHT22;3799;47.184;8.538;2022-09-12T08:25:04;17.80;99.90
7516;DHT22;3799;47.184;8.538;2022-09-12T08:27:29;17.90;99.90
7516;DHT22;3799;47.184;8.538;2022-09-12T08:29:55;17.70;99.90
7516;DHT22;3799;47.184;8.538;2022-09-12T08:32:21;17.80;99.90
7516;DHT22;3799;47.184;8.538;2022-09-12T08:34:46;17.90;99.90
7516;DHT22;3799;47.184;8.538;2022-09-12T08:37:12;17.80;99.90
7516;DHT22;3799;47.184;8.538;2022-09-12T08:39:37;18.00;99.90
7516;DHT22;3799;47.184;8.538;2022-09-12T08:42:04;18.30;99.90
7516;DHT22;3799;47.184;8.538;2022-09-12T08:52:21;18.70;99.90
7516;DHT22;3799;47.184;8.538;2022-09-12T08:54:48;18.80;99.90
7516;DHT22;3799;47.184;8.538;2022-09-12T08:57:15;18.90;99.90
7516;DHT22;3799;47.184;8.538;2022-09-12T08:59:41;18.70;99.90
7516;DHT22;3799;47.184;8.538;2022-09-12T09:05:00;19.20;99.90
7516;DHT22;3799;47.184;8.538;2022-09-12T09:10:23;19.20;99.90
7516;DHT22;3799;47.184;8.538;2022-09-12T09:20:41;19.70;99.90
7516;DHT22;3799;47.184;8.538;2022-09-12T09:28:18;19.60;99.90
7516;DHT22;3799;47.184;8.538;2022-09-12T09:30:45;19.90;99.90
7516;DHT22;3799;47.184;8.538;2022-09-12T09:33:14;20.10;99.90
7516;DHT22;3799;47.184;8.538;2022-09-12T09:35:43;20.00;99.90
7516;DHT22;3799;47.184;8.538;2022-09-12T09:38:55;20.00;99.90
7516;DHT22;3799;47.184;8.538;2022-09-12T09:41:06;20.10;99.90
7516;DHT22;3799;47.184;8.538;2022-09-12T09:43:36;20.20;99.90
7516;DHT22;3799;47.184;8.538;2022-09-12T09:46:02;20.40;99.90
7516;DHT22;3799;47.184;8.538;2022-09-12T09:48:32;20.20;99.90
7516;DHT22;3799;47.184;8.538;2022-09-12T09:50:59;20.30;99.90
7516;DHT22;3799;47.184;8.538;2022-09-12T09:58:51;20.40;99.20
7516;DHT22;3799;47.184;8.538;2022-09-12T10:01:17;20.80;98.60
7516;DHT22;3799;47.184;8.538;2022-09-12T10:03:47;20.90;98.00
7516;DHT22;3799;47.184;8.538;2022-09-12T10:06:30;21.00;97.70
7516;DHT22;3799;47.184;8.538;2022-09-12T10:09:03;21.10;98.00
7516;DHT22;3799;47.184;8.538;2022-09-12T10:11:29;21.20;97.00
7516;DHT22;3799;47.184;8.538;2022-09-12T10:13:57;21.40;97.10
7516;DHT22;3799;47.184;8.538;2022-09-12T10:16:29;21.60;96.60
7516;DHT22;3799;47.184;8.538;2022-09-12T10:18:55;21.80;95.90
7516;DHT22;3799;47.184;8.538;2022-09-12T10:21:32;22.00;95.30
7516;DHT22;3799;47.184;8.538;2022-09-12T10:23:59;22.10;93.70
7516;DHT22;3799;47.184;8.538;2022-09-12T10:26:25;22.20;92.80
7516;DHT22;3799;47.184;8.538;2022-09-12T10:28:52;22.30;92.10
7516;DHT22;3799;47.184;8.538;2022-09-12T10:31:23;22.40;91.30
7516;DHT22;3799;47.184;8.538;2022-09-12T10:33:53;22.50;90.60
7516;DHT22;3799;47.184;8.538;2022-09-12T10:36:20;22.60;88.50
7516;DHT22;3799;47.184;8.538;2022-09-12T10:38:53;22.70;87.70
7516;DHT22;3799;47.184;8.538;2022-09-12T10:41:19;22.70;86.90
7516;DHT22;3799;47.184;8.538;2022-09-12T10:43:46;22.70;85.40
7516;DHT22;3799;47.184;8.538;2022-09-12T10:48:41;22.70;83.60
7516;DHT22;3799;47.184;8.538;2022-09-12T10:51:14;22.70;82.40
7516;DHT22;3799;47.184;8.538;2022-09-12T10:53:51;22.80;81.90
7516;DHT22;3799;47.184;8.538;2022-09-12T10:56:19;22.90;82.60
7516;DHT22;3799;47.184;8.538;2022-09-12T11:06:59;23.40;76.80
7516;DHT22;3799;47.184;8.538;2022-09-12T11:12:04;23.60;73.80
7516;DHT22;3799;47.184;8.538;2022-09-12T11:22:07;24.30;69.50
7516;DHT22;3799;47.184;8.538;2022-09-12T11:24:51;24.60;69.30
7516;DHT22;3799;47.184;8.538;2022-09-12T11:27:26;24.80;67.40
7516;DHT22;3799;47.184;8.538;2022-09-12T11:30:06;24.90;66.10
7516;DHT22;3799;47.184;8.538;2022-09-12T11:40:26;25.60;60.60
7516;DHT22;3799;47.184;8.538;2022-09-12T11:42:57;25.70;60.00
7516;DHT22;3799;47.184;8.538;2022-09-12T11:45:25;25.80;59.30
7516;DHT22;3799;47.184;8.538;2022-09-12T11:47:54;25.90;59.50
7516;DHT22;3799;47.184;8.538;2022-09-12T11:50:28;26.10;59.30
7516;DHT22;3799;47.184;8.538;2022-09-12T11:52:56;26.20;58.10
7516;DHT22;3799;47.184;8.538;2022-09-12T11:55:24;26.40;57.00
7516;DHT22;3799;47.184;8.538;2022-09-12T11:57:55;26.60;55.00
7516;DHT22;3799;47.184;8.538;2022-09-12T12:00:29;26.70;54.70
7516;DHT22;3799;47.184;8.538;2022-09-12T12:03:08;26.90;54.30
7516;DHT22;3799;47.184;8.538;2022-09-12T12:05:42;27.10;54.10
7516;DHT22;3799;47.184;8.538;2022-09-12T12:08:09;27.20;52.40
7516;DHT22;3799;47.184;8.538;2022-09-12T12:10:36;27.40;52.50
7516;DHT22;3799;47.184;8.538;2022-09-12T12:15:56;27.90;51.10
7516;DHT22;3799;47.184;8.538;2022-09-12T12:18:24;28.10;51.30
7516;DHT22;3799;47.184;8.538;2022-09-12T12:20:50;28.40;51.30
7516;DHT22;3799;47.184;8.538;2022-09-12T12:25:53;28.80;50.60
7516;DHT22;3799;47.184;8.538;2022-09-12T12:31:04;29.10;49.60
7516;DHT22;3799;47.184;8.538;2022-09-12T12:38:28;30.10;49.00
7516;DHT22;3799;47.184;8.538;2022-09-12T12:41:23;30.40;48.60
7516;DHT22;3799;47.184;8.538;2022-09-12T12:43:39;30.70;48.50
7516;DHT22;3799;47.184;8.538;2022-09-12T12:46:06;30.90;46.90
7516;DHT22;3799;47.184;8.538;2022-09-12T12:48:34;31.00;46.20
7516;DHT22;3799;47.184;8.538;2022-09-12T12:53:45;31.30;45.20
7516;DHT22;3799;47.184;8.538;2022-09-12T12:56:27;31.50;44.70
7516;DHT22;3799;47.184;8.538;2022-09-12T12:58:57;31.60;44.00
7516;DHT22;3799;47.184;8.538;2022-09-12T13:01:24;31.70;42.90
7516;DHT22;3799;47.184;8.538;2022-09-12T13:04:00;31.90;43.20
7516;DHT22;3799;47.184;8.538;2022-09-12T13:08:59;32.30;43.20
7516;DHT22;3799;47.184;8.538;2022-09-12T13:11:36;32.30;42.90
7516;DHT22;3799;47.184;8.538;2022-09-12T13:14:05;32.50;41.50
7516;DHT22;3799;47.184;8.538;2022-09-12T13:19:03;32.80;40.80
7516;DHT22;3799;47.184;8.538;2022-09-12T13:21:30;32.80;40.20
7516;DHT22;3799;47.184;8.538;2022-09-12T13:24:03;32.80;40.50
7516;DHT22;3799;47.184;8.538;2022-09-12T13:26:33;32.90;40.50
7516;DHT22;3799;47.184;8.538;2022-09-12T13:29:15;33.10;40.20
7516;DHT22;3799;47.184;8.538;2022-09-12T13:31:42;33.30;39.50
7516;DHT22;3799;47.184;8.538;2022-09-12T13:34:08;33.40;39.70
7516;DHT22;3799;47.184;8.538;2022-09-12T13:39:26;33.50;38.80
7516;DHT22;3799;47.184;8.538;2022-09-12T13:44:18;33.60;38.40
7516;DHT22;3799;47.184;8.538;2022-09-12T13:46:44;33.80;38.30
7516;DHT22;3799;47.184;8.538;2022-09-12T13:51:45;34.20;37.50
7516;DHT22;3799;47.184;8.538;2022-09-12T13:54:19;34.30;37.30
7516;DHT22;3799;47.184;8.538;2022-09-12T13:56:45;34.30;37.40
7516;DHT22;3799;47.184;8.538;2022-09-12T13:59:11;34.30;37.40
7516;DHT22;3799;47.184;8.538;2022-09-12T14:01:38;34.30;37.30
7516;DHT22;3799;47.184;8.538;2022-09-12T14:07:06;34.40;36.80
7516;DHT22;3799;47.184;8.538;2022-09-12T14:09:42;34.40;37.20
7516;DHT22;3799;47.184;8.538;2022-09-12T14:12:11;34.60;37.10
7516;DHT22;3799;47.184;8.538;2022-09-12T14:14:42;34.90;37.10
7516;DHT22;3799;47.184;8.538;2022-09-12T14:19:42;35.00;36.40
7516;DHT22;3799;47.184;8.538;2022-09-12T14:22:10;35.00;36.20
7516;DHT22;3799;47.184;8.538;2022-09-12T14:24:37;34.90;36.10
7516;DHT22;3799;47.184;8.538;2022-09-12T14:27:03;35.00;36.00
7516;DHT22;3799;47.184;8.538;2022-09-12T14:29:29;35.00;35.60
7516;DHT22;3799;47.184;8.538;2022-09-12T14:31:59;35.00;35.30
7516;DHT22;3799;47.184;8.538;2022-09-12T14:34:25;35.00;35.50
7516;DHT22;3799;47.184;8.538;2022-09-12T14:36:51;35.10;35.60
7516;DHT22;3799;47.184;8.538;2022-09-12T14:41:58;35.00;35.90
7516;DHT22;3799;47.184;8.538;2022-09-12T14:44:25;35.00;35.50
7516;DHT22;3799;47.184;8.538;2022-09-12T14:46:51;35.10;35.60
7516;DHT22;3799;47.184;8.538;2022-09-12T14:49:33;35.10;35.80
7516;DHT22;3799;47.184;8.538;2022-09-12T14:52:00;35.00;35.60
7516;DHT22;3799;47.184;8.538;2022-09-12T14:56:53;35.00;35.60
7516;DHT22;3799;47.184;8.538;2022-09-12T14:59:30;34.90;35.50
7516;DHT22;3799;47.184;8.538;2022-09-12T15:04:41;35.20;35.20
7516;DHT22;3799;47.184;8.538;2022-09-12T15:09:48;35.50;35.00
7516;DHT22;3799;47.184;8.538;2022-09-12T15:12:14;35.60;35.40
7516;DHT22;3799;47.184;8.538;2022-09-12T15:14:39;35.50;36.20
7516;DHT22;3799;47.184;8.538;2022-09-12T15:17:05;35.40;35.60
7516;DHT22;3799;47.184;8.538;2022-09-12T15:19:31;35.40;35.30
7516;DHT22;3799;47.184;8.538;2022-09-12T15:21:56;35.50;35.00
7516;DHT22;3799;47.184;8.538;2022-09-12T15:24:22;35.80;34.90
7516;DHT22;3799;47.184;8.538;2022-09-12T15:26:47;35.80;35.40
7516;DHT22;3799;47.184;8.538;2022-09-12T15:29:13;35.70;35.20
7516;DHT22;3799;47.184;8.538;2022-09-12T15:31:39;35.40;35.50
7516;DHT22;3799;47.184;8.538;2022-09-12T15:34:04;35.40;35.60
7516;DHT22;3799;47.184;8.538;2022-09-12T15:36:30;35.20;35.60
7516;DHT22;3799;47.184;8.538;2022-09-12T15:38:55;35.00;35.90
7516;DHT22;3799;47.184;8.538;2022-09-12T15:41:22;35.00;35.90
7516;DHT22;3799;47.184;8.538;2022-09-12T15:43:49;35.00;35.90
7516;DHT22;3799;47.184;8.538;2022-09-12T15:46:15;34.90;35.60
7516;DHT22;3799;47.184;8.538;2022-09-12T15:48:41;34.90;35.80
7516;DHT22;3799;47.184;8.538;2022-09-12T15:51:14;34.50;35.70
7516;DHT22;3799;47.184;8.538;2022-09-12T15:53:40;33.90;36.50
7516;DHT22;3799;47.184;8.538;2022-09-12T15:56:06;33.30;36.90
7516;DHT22;3799;47.184;8.538;2022-09-12T15:58:31;32.80;37.20
7516;DHT22;3799;47.184;8.538;2022-09-12T16:00:57;32.20;37.20
7516;DHT22;3799;47.184;8.538;2022-09-12T16:03:24;31.80;38.00
7516;DHT22;3799;47.184;8.538;2022-09-12T16:06:00;31.80;38.70
7516;DHT22;3799;47.184;8.538;2022-09-12T16:08:27;32.00;39.30
7516;DHT22;3799;47.184;8.538;2022-09-12T16:10:54;32.30;39.30
7516;DHT22;3799;47.184;8.538;2022-09-12T16:13:20;32.50;38.10
7516;DHT22;3799;47.184;8.538;2022-09-12T16:15:46;32.50;38.10
7516;DHT22;3799;47.184;8.538;2022-09-12T16:18:11;32.50;38.00
7516;DHT22;3799;47.184;8.538;2022-09-12T16:20:38;32.40;38.30
7516;DHT22;3799;47.184;8.538;2022-09-12T16:23:06;32.40;38.50
7516;DHT22;3799;47.184;8.538;2022-09-12T16:25:32;32.40;38.70
7516;DHT22;3799;47.184;8.538;2022-09-12T16:27:58;32.30;38.10
7516;DHT22;3799;47.184;8.538;2022-09-12T16:30:25;32.20;38.40
7516;DHT22;3799;47.184;8.538;2022-09-12T16:32:51;32.20;39.20
7516;DHT22;3799;47.184;8.538;2022-09-12T16:35:19;32.20;40.00
7516;DHT22;3799;47.184;8.538;2022-09-12T16:37:45;32.20;40.30
7516;DHT22;3799;47.184;8.538;2022-09-12T16:40:10;32.30;40.30
7516;DHT22;3799;47.184;8.538;2022-09-12T16:42:36;32.40;40.00
7516;DHT22;3799;47.184;8.538;2022-09-12T16:45:02;32.50;40.00
7516;DHT22;3799;47.184;8.538;2022-09-12T16:47:27;32.50;39.80
7516;DHT22;3799;47.184;8.538;2022-09-12T16:49:56;32.50;39.90
7516;DHT22;3799;47.184;8.538;2022-09-12T16:52:22;32.40;40.20
7516;DHT22;3799;47.184;8.538;2022-09-12T16:54:48;32.30;40.60
7516;DHT22;3799;47.184;8.538;2022-09-12T16:57:13;32.30;40.50
7516;DHT22;3799;47.184;8.538;2022-09-12T16:59:39;32.30;40.50
7516;DHT22;3799;47.184;8.538;2022-09-12T17:02:05;32.30;41.40
7516;DHT22;3799;47.184;8.538;2022-09-12T17:04:31;32.10;42.70
7516;DHT22;3799;47.184;8.538;2022-09-12T17:06:56;31.80;43.50
7516;DHT22;3799;47.184;8.538;2022-09-12T17:09:23;31.60;44.40
7516;DHT22;3799;47.184;8.538;2022-09-12T17:11:49;31.40;44.70
7516;DHT22;3799;47.184;8.538;2022-09-12T17:14:16;31.10;44.90
7516;DHT22;3799;47.184;8.538;2022-09-12T17:16:44;30.70;44.90
7516;DHT22;3799;47.184;8.538;2022-09-12T17:19:14;30.00;45.00
7516;DHT22;3799;47.184;8.538;2022-09-12T17:21:40;29.10;45.60
7516;DHT22;3799;47.184;8.538;2022-09-12T17:24:06;28.00;46.90
7516;DHT22;3799;47.184;8.538;2022-09-12T17:26:31;27.20;47.90
7516;DHT22;3799;47.184;8.538;2022-09-12T17:28:57;26.50;48.70
7516;DHT22;3799;47.184;8.538;2022-09-12T17:31:23;25.80;49.40
7516;DHT22;3799;47.184;8.538;2022-09-12T17:33:48;25.30;50.50
7516;DHT22;3799;47.184;8.538;2022-09-12T17:36:15;24.80;51.40
7516;DHT22;3799;47.184;8.538;2022-09-12T17:38:41;24.60;52.00
7516;DHT22;3799;47.184;8.538;2022-09-12T17:41:08;24.20;52.00
7516;DHT22;3799;47.184;8.538;2022-09-12T17:43:34;23.80;52.50
7516;DHT22;3799;47.184;8.538;2022-09-12T17:46:02;23.50;53.00
7516;DHT22;3799;47.184;8.538;2022-09-12T17:48:28;23.20;53.60
7516;DHT22;3799;47.184;8.538;2022-09-12T17:50:54;22.90;54.00
7516;DHT22;3799;47.184;8.538;2022-09-12T17:53:19;22.70;54.50
7516;DHT22;3799;47.184;8.538;2022-09-12T17:55:45;22.50;54.80
7516;DHT22;3799;47.184;8.538;2022-09-12T17:58:12;22.30;55.20
7516;DHT22;3799;47.184;8.538;2022-09-12T18:00:38;22.10;55.50
7516;DHT22;3799;47.184;8.538;2022-09-12T18:03:22;21.90;56.10
7516;DHT22;3799;47.184;8.538;2022-09-12T18:05:51;21.80;56.70
7516;DHT22;3799;47.184;8.538;2022-09-12T18:08:17;21.60;57.10
7516;DHT22;3799;47.184;8.538;2022-09-12T18:10:43;21.50;57.80
7516;DHT22;3799;47.184;8.538;2022-09-12T18:13:09;21.40;58.30
7516;DHT22;3799;47.184;8.538;2022-09-12T18:15:35;21.30;59.00
7516;DHT22;3799;47.184;8.538;2022-09-12T18:18:01;21.20;59.90
7516;DHT22;3799;47.184;8.538;2022-09-12T18:20:27;21.00;62.10
7516;DHT22;3799;47.184;8.538;2022-09-12T18:22:52;20.90;64.70
7516;DHT22;3799;47.184;8.538;2022-09-12T18:25:18;20.80;67.20
7516;DHT22;3799;47.184;8.538;2022-09-12T18:27:43;20.70;70.10